Time;durP1;ratioP1;P1;durP2;ratioP2;P2;SDS_P1;SDS_P2;PMS_P1;PMS_P2;Temp;Humidity;BMP_temperature;BMP_pressure;BME280_temperature;BME280_humidity;BME280_pressure;Samples;Min_cycle;Max_cycle;Signal;HPM_P1;HPM_P2
2021/12/14 00:01:34;;;;;;;62.20;25.30;;;;;;;-2.62;84.79;101746.65;84197;1337;24283;-74
2021/12/14 00:03:48;;;;;;;74.30;24.70;;;;;;;-2.65;84.68;101745.51;84191;1338;23227;-74
2021/12/14 00:05:55;;;;;;;58.30;24.30;;;;;;;-2.70;84.51;101742.08;84145;1333;22668;-68
2021/12/14 00:08:07;;;;;;;57.30;22.50;;;;;;;-2.73;84.46;101749.33;84188;1338;22597;-67
2021/12/14 00:10:32;;;;;;;56.20;24.40;;;;;;;-2.74;84.55;101750.31;84210;1334;25379;-74
2021/12/14 00:12:43;;;;;;;55.30;23.90;;;;;;;-2.76;84.51;101758.41;84181;1335;22625;-71
2021/12/14 00:15:04;;;;;;;62.10;24.30;;;;;;;-2.80;84.51;101762.52;84170;1337;22834;-67
2021/12/14 00:17:12;;;;;;;67.90;27.50;;;;;;;-2.82;84.70;101764.99;84180;1336;22711;-67
2021/12/14 00:19:19;;;;;;;57.40;22.90;;;;;;;-2.81;84.78;101762.30;84194;1337;26740;-68
2021/12/14 00:21:29;;;;;;;58.10;23.50;;;;;;;-2.81;84.70;101765.21;84161;1335;22652;-66
2021/12/14 00:26:04;;;;;;;60.00;24.60;;;;;;;-2.87;84.82;101768.41;84165;1338;22630;-73
2021/12/14 00:28:13;;;;;;;60.40;26.10;;;;;;;-2.93;84.59;101767.52;84191;1338;22615;-73
2021/12/14 00:30:22;;;;;;;64.80;23.90;;;;;;;-2.97;84.69;101771.94;84199;1337;22609;-72
2021/12/14 00:32:35;;;;;;;56.20;22.60;;;;;;;-2.96;84.93;101777.26;84170;1336;22618;-72
2021/12/14 00:34:44;;;;;;;58.50;24.50;;;;;;;-2.97;84.75;101774.86;84201;1337;22619;-68
2021/12/14 00:36:52;;;;;;;59.00;24.80;;;;;;;-2.95;84.68;101774.42;84171;1338;22618;-67
2021/12/14 00:38:59;;;;;;;55.30;24.30;;;;;;;-2.94;84.84;101776.16;84178;1338;22609;-72
2021/12/14 00:41:11;;;;;;;58.40;24.40;;;;;;;-2.91;84.98;101777.64;84192;1338;22628;-72
2021/12/14 00:43:18;;;;;;;56.80;24.20;;;;;;;-2.89;85.13;101782.01;84190;1338;22902;-72
2021/12/14 00:45:24;;;;;;;62.00;24.30;;;;;;;-2.87;85.16;101782.59;84197;1339;22609;-73
2021/12/14 00:47:33;;;;;;;55.60;24.70;;;;;;;-2.87;85.03;101778.66;84172;1337;22627;-71
2021/12/14 00:49:40;;;;;;;58.70;26.10;;;;;;;-2.88;84.90;101780.50;83516;1338;1002963;-72
2021/12/14 00:51:50;;;;;;;61.40;25.90;;;;;;;-2.92;84.80;101784.27;84182;1337;22606;-73
2021/12/14 00:53:55;;;;;;;;;;;;;;;-2.93;84.94;101786.61;84175;1337;22891;-71
2021/12/14 00:56:06;;;;;;;61.50;23.70;;;;;;;-2.95;84.93;101786.35;84195;1337;22596;-73
2021/12/14 00:58:13;;;;;;;57.10;22.70;;;;;;;-2.93;85.06;101791.07;84204;1337;22618;-73
2021/12/14 01:00:21;;;;;;;63.00;26.80;;;;;;;-2.94;84.91;101789.15;84191;1338;22625;-73
2021/12/14 01:02:28;;;;;;;61.30;25.10;;;;;;;-2.92;85.04;101785.13;84211;1338;25310;-74
2021/12/14 01:04:39;;;;;;;94.30;25.70;;;;;;;-2.89;85.00;101782.34;84202;1338;22609;-69
2021/12/14 01:06:48;;;;;;;60.30;25.50;;;;;;;-2.87;85.13;101779.69;84207;1338;22902;-69
2021/12/14 01:08:58;;;;;;;65.00;24.40;;;;;;;-2.86;85.09;101778.00;84221;1338;22705;-69
2021/12/14 01:11:08;;;;;;;56.40;24.60;;;;;;;-2.91;84.65;101772.69;84188;1338;22638;-69
2021/12/14 01:13:15;;;;;;;53.10;24.10;;;;;;;-2.95;84.68;101778.20;84190;1338;22712;-69
2021/12/14 01:15:28;;;;;;;56.10;22.40;;;;;;;-2.98;84.69;101771.23;83483;1337;1003221;-68
2021/12/14 01:17:42;;;;;;;52.10;22.30;;;;;;;-3.01;84.54;101772.65;84173;1338;25497;-68
2021/12/14 01:19:54;;;;;;;47.90;20.80;;;;;;;-3.02;84.65;101772.42;84179;1338;23987;-74
2021/12/14 01:22:19;;;;;;;38.70;19.10;;;;;;;-3.02;84.53;101776.16;83487;1338;1003970;-73
2021/12/14 01:24:52;;;;;;;43.80;20.00;;;;;;;-3.07;84.26;101777.17;84181;1333;22656;-70
2021/12/14 01:27:01;;;;;;;46.80;21.70;;;;;;;-3.11;84.50;101779.06;84207;1333;22620;-73
2021/12/14 01:29:13;;;;;;;45.00;21.50;;;;;;;-3.12;84.66;101770.85;84181;1337;22616;-73
2021/12/14 01:31:28;;;;;;;53.10;23.50;;;;;;;-3.11;84.67;101765.93;83466;1337;1003794;-73
2021/12/14 01:33:55;;;;;;;47.60;20.60;;;;;;;-3.11;84.57;101758.06;83494;1328;1003635;-71
2021/12/14 01:36:08;;;;;;;44.90;20.80;;;;;;;-3.14;84.58;101757.98;84182;1338;25324;-73
2021/12/14 01:38:33;;;;;;;48.10;19.70;;;;;;;-3.18;84.48;101756.12;84158;1337;22627;-73
2021/12/14 01:40:56;;;;;;;47.00;21.20;;;;;;;-3.20;84.31;101755.35;83463;1338;1003366;-74
2021/12/14 01:43:03;;;;;;;53.90;22.50;;;;;;;-3.21;84.35;101755.64;83455;1338;1003508;-73
2021/12/14 01:45:12;;;;;;;60.30;24.20;;;;;;;-3.21;84.34;101753.41;83495;1338;1002956;-68
2021/12/14 01:47:23;;;;;;;45.90;20.60;;;;;;;-3.20;84.44;101753.42;84175;1337;22624;-72
2021/12/14 01:49:33;;;;;;;53.20;23.70;;;;;;;-3.19;84.46;101751.80;84192;1338;22710;-74
2021/12/14 01:51:38;;;;;;;;;;;;;;;-3.19;84.63;101751.63;84143;1334;22688;-75
2021/12/14 01:53:49;;;;;;;46.60;21.70;;;;;;;-3.22;84.43;101749.25;84043;1338;22713;-74
2021/12/14 01:55:59;;;;;;;58.20;24.60;;;;;;;-3.24;84.57;101746.13;84074;1338;25550;-74
2021/12/14 01:58:07;;;;;;;51.70;21.20;;;;;;;-3.27;84.52;101742.09;84152;1338;23218;-73
2021/12/14 02:00:21;;;;;;;54.70;23.10;;;;;;;-3.28;84.73;101741.69;84135;1338;25000;-73
2021/12/14 02:02:31;;;;;;;55.10;22.70;;;;;;;-3.28;84.60;101743.59;84153;1338;22628;-74
2021/12/14 02:04:41;;;;;;;;;;;;;;;-3.26;84.71;101741.23;84163;1338;26504;-68
2021/12/14 02:06:54;;;;;;;;;;;;;;;-3.28;84.78;101733.86;84146;1341;22616;-70
2021/12/14 02:09:02;;;;;;;52.00;22.30;;;;;;;-3.27;84.80;101737.31;84157;1338;24275;-73
2021/12/14 02:11:09;;;;;;;45.90;21.00;;;;;;;-3.22;84.86;101741.77;84129;1337;22613;-74
2021/12/14 02:13:45;;;;;;;49.80;21.70;;;;;;;-3.19;84.80;101740.38;84164;1337;22689;-73
2021/12/14 02:15:56;;;;;;;56.10;24.60;;;;;;;-3.15;84.83;101742.07;84041;1338;22791;-68
2021/12/14 02:18:05;;;;;;;58.40;24.70;;;;;;;-3.14;84.79;101748.41;84126;1338;22715;-68
2021/12/14 02:20:32;;;;;;;56.90;25.20;;;;;;;-3.14;84.82;101747.56;84145;1338;22623;-69
2021/12/14 02:23:00;;;;;;;50.70;23.80;;;;;;;-3.16;84.71;101747.98;84157;1335;22624;-68
2021/12/14 02:25:08;;;;;;;60.00;23.80;;;;;;;-3.19;84.90;101748.56;84178;1338;22703;-72
2021/12/14 02:27:15;;;;;;;63.10;27.70;;;;;;;-3.19;84.91;101747.71;84139;1337;22632;-73
2021/12/14 02:29:27;;;;;;;61.00;24.30;;;;;;;-3.20;84.71;101746.95;83434;1338;1003909;-69
2021/12/14 02:31:39;;;;;;;60.10;24.40;;;;;;;-3.22;84.55;101748.77;84139;1338;22706;-68
2021/12/14 02:33:46;;;;;;;54.00;24.40;;;;;;;-3.25;84.58;101750.83;84148;1336;22619;-68
2021/12/14 02:35:55;;;;;;;58.20;23.70;;;;;;;-3.22;84.81;101748.41;83971;1339;22669;-71
2021/12/14 02:38:08;;;;;;;54.00;24.00;;;;;;;-3.20;84.57;101745.95;84155;1337;23931;-68
2021/12/14 02:40:20;;;;;;;54.00;23.50;;;;;;;-3.20;84.65;101742.02;84178;1337;25037;-68
2021/12/14 02:42:31;;;;;;;61.90;24.20;;;;;;;-3.22;84.63;101738.02;84155;1338;24276;-68
2021/12/14 02:44:41;;;;;;;64.00;25.70;;;;;;;-3.21;84.81;101734.27;84154;1339;22636;-68
2021/12/14 02:46:51;;;;;;;68.60;27.90;;;;;;;-3.19;84.87;101736.09;84081;1338;23076;-69
2021/12/14 02:48:59;;;;;;;60.60;27.10;;;;;;;-3.19;84.81;101734.02;83483;1339;1003328;-73
2021/12/14 02:51:12;;;;;;;62.40;25.70;;;;;;;-3.23;84.56;101727.73;83476;1337;1003379;-74
2021/12/14 02:53:22;;;;;;;69.50;27.50;;;;;;;-3.26;84.61;101722.33;84166;1330;22835;-71
2021/12/14 02:55:32;;;;;;;61.80;24.70;;;;;;;-3.26;84.75;101721.81;84163;1338;25469;-68
2021/12/14 02:57:44;;;;;;;69.00;26.10;;;;;;;-3.22;84.85;101722.64;84182;1337;25458;-68
2021/12/14 02:59:50;;;;;;;53.80;24.00;;;;;;;-3.19;84.85;101724.33;84196;1338;22603;-68
2021/12/14 03:02:05;;;;;;;60.80;25.60;;;;;;;-3.20;84.64;101726.85;84189;1334;25598;-68
2021/12/14 03:04:14;;;;;;;55.20;24.00;;;;;;;-3.20;84.65;101726.13;84176;1337;22606;-68
2021/12/14 03:06:24;;;;;;;58.30;23.70;;;;;;;-3.18;84.71;101730.67;84185;1337;22640;-68
2021/12/14 03:08:43;;;;;;;57.20;24.20;;;;;;;-3.16;84.53;101732.96;84184;1337;22698;-69
2021/12/14 03:10:56;;;;;;;55.20;23.30;;;;;;;-3.19;84.42;101735.74;84179;1334;22613;-69
2021/12/14 03:13:07;;;;;;;51.20;23.60;;;;;;;-3.26;84.06;101733.23;83406;1338;1003684;-68
2021/12/14 03:15:15;;;;;;;52.50;22.80;;;;;;;-3.31;84.24;101731.17;84233;1337;22625;-68
2021/12/14 03:17:22;;;;;;;46.10;21.30;;;;;;;-3.34;84.07;101731.05;84204;1337;22845;-70
2021/12/14 03:19:31;;;;;;;52.90;24.00;;;;;;;-3.39;83.91;101726.58;84039;1341;22623;-73
2021/12/14 03:21:41;;;;;;;50.90;23.30;;;;;;;-3.41;83.88;101725.98;84213;1337;22622;-76
2021/12/14 03:23:49;;;;;;;48.50;21.40;;;;;;;-3.41;84.07;101728.55;84218;1339;22612;-74
2021/12/14 03:25:56;;;;;;;57.60;22.90;;;;;;;-3.44;83.80;101723.49;84206;1337;22737;-68
2021/12/14 03:28:02;;;;;;;47.50;21.80;;;;;;;-3.44;84.18;101725.73;84237;1337;22619;-69
2021/12/14 03:30:30;;;;;;;57.70;23.60;;;;;;;-3.45;84.11;101727.88;84229;1339;22669;-73
2021/12/14 03:32:38;;;;;;;43.70;21.30;;;;;;;-3.47;83.99;101728.98;84241;1337;23899;-71
2021/12/14 03:34:44;;;;;;;50.60;23.70;;;;;;;-3.50;83.98;101723.73;84235;1338;22632;-72
2021/12/14 03:36:52;;;;;;;49.10;21.40;;;;;;;-3.52;83.92;101721.60;84224;1338;25646;-73
2021/12/14 03:39:04;;;;;;;49.90;21.10;;;;;;;-3.54;83.90;101719.52;83519;1337;1003770;-69
2021/12/14 03:41:12;;;;;;;43.00;19.20;;;;;;;-3.53;83.93;101719.73;84215;1337;22640;-68
2021/12/14 03:43:19;;;;;;;43.10;21.10;;;;;;;-3.52;83.99;101720.93;84230;1333;22927;-68
2021/12/14 03:45:25;;;;;;;41.40;20.70;;;;;;;-3.50;84.06;101718.27;84202;1337;22630;-68
2021/12/14 03:47:36;;;;;;;44.70;19.70;;;;;;;-3.52;83.67;101712.59;84117;1338;25320;-68
2021/12/14 03:49:48;;;;;;;34.60;17.20;;;;;;;-3.56;83.42;101719.94;84231;1335;22816;-69
2021/12/14 03:51:54;;;;;;;39.80;20.20;;;;;;;-3.63;83.24;101725.27;84211;1337;22677;-68
2021/12/14 03:54:00;;;;;;;35.20;16.50;;;;;;;-3.68;83.28;101723.35;84266;1338;25289;-69
2021/12/14 03:56:08;;;;;;;40.70;19.80;;;;;;;-3.75;83.20;101716.41;83495;1337;1003533;-68
2021/12/14 03:58:17;;;;;;;42.30;18.80;;;;;;;-3.77;83.45;101716.99;84233;1337;22663;-68
2021/12/14 04:00:26;;;;;;;41.20;18.80;;;;;;;-3.78;83.44;101716.09;84178;1337;22616;-68
2021/12/14 04:02:34;;;;;;;33.20;16.90;;;;;;;-3.79;83.23;101718.11;84193;1338;22586;-69
2021/12/14 04:04:43;;;;;;;38.80;18.90;;;;;;;-3.81;83.34;101713.92;84188;1338;24272;-73
2021/12/14 04:06:51;;;;;;;38.40;18.00;;;;;;;-3.82;83.32;101702.29;83516;1337;1003798;-74
2021/12/14 04:09:02;;;;;;;38.60;19.50;;;;;;;-3.84;83.38;101697.43;84183;1338;22629;-69
2021/12/14 04:11:09;;;;;;;43.40;21.10;;;;;;;-3.87;83.20;101705.66;84207;1337;24328;-68
2021/12/14 04:13:20;;;;;;;37.80;16.90;;;;;;;-3.92;83.11;101706.83;84221;1335;23391;-69
2021/12/14 04:15:26;;;;;;;41.40;19.40;;;;;;;-3.97;82.98;101715.50;84228;1338;22669;-68
2021/12/14 04:17:33;;;;;;;42.20;19.90;;;;;;;-4.00;83.17;101715.17;84202;1336;22613;-69
2021/12/14 04:19:40;;;;;;;44.50;20.50;;;;;;;-4.02;83.26;101719.03;84240;1338;22868;-68
2021/12/14 04:21:46;;;;;;;43.80;19.70;;;;;;;-4.06;83.05;101716.13;84201;1338;22624;-68
2021/12/14 04:23:56;;;;;;;41.90;19.20;;;;;;;-4.08;83.04;101714.52;84255;1338;22675;-72
2021/12/14 04:26:03;;;;;;;44.50;18.80;;;;;;;-4.08;83.18;101716.54;84216;1337;22623;-73
2021/12/14 04:28:11;;;;;;;45.40;18.70;;;;;;;-4.09;83.25;101714.27;84206;1337;23874;-74
2021/12/14 04:30:19;;;;;;;45.30;22.20;;;;;;;-4.09;83.40;101717.68;83523;1340;1002958;-68
2021/12/14 04:32:26;;;;;;;41.60;21.70;;;;;;;-4.05;83.61;101711.72;84202;1337;26488;-68
2021/12/14 04:34:33;;;;;;;47.50;20.20;;;;;;;-4.03;83.49;101708.23;84208;1338;22620;-73
2021/12/14 04:36:43;;;;;;;44.10;20.50;;;;;;;-4.07;83.44;101713.18;84232;1338;22689;-74
2021/12/14 04:39:04;;;;;;;46.30;21.80;;;;;;;-4.07;83.62;101709.77;84218;1337;22628;-73
2021/12/14 04:53:41;;;;;;;46.10;21.50;;;;;;;-4.04;83.67;101695.43;83330;1337;1002991;-73
2021/12/14 04:55:49;;;;;;;44.70;23.20;;;;;;;-4.02;83.46;101693.79;84216;1337;24299;-73
2021/12/14 04:57:55;;;;;;;46.70;23.00;;;;;;;-4.02;83.74;101694.66;84186;1341;25336;-73
2021/12/14 05:00:17;;;;;;;51.00;23.60;;;;;;;-4.05;83.42;101697.23;84187;1329;24394;-68
2021/12/14 05:02:26;;;;;;;43.30;21.50;;;;;;;-4.05;83.61;101711.19;84222;1337;25459;-67
2021/12/14 05:04:32;;;;;;;45.80;20.50;;;;;;;-4.05;83.78;101717.33;84182;1337;24142;-67
2021/12/14 05:06:48;;;;;;;44.80;23.80;;;;;;;-4.04;83.89;101714.17;84218;1337;22689;-68
2021/12/14 05:11:23;;;;;;;45.30;22.50;;;;;;;-3.94;83.68;101713.20;84186;1338;22737;-73
2021/12/14 05:13:35;;;;;;;42.20;20.90;;;;;;;-3.92;83.68;101714.66;84240;1338;23919;-73
2021/12/14 05:15:42;;;;;;;42.00;20.50;;;;;;;-3.90;83.79;101710.85;84195;1337;22637;-69
2021/12/14 05:17:49;;;;;;;41.20;21.00;;;;;;;-3.87;83.63;101713.50;84180;1337;22607;-69
2021/12/14 05:19:58;;;;;;;39.10;20.20;;;;;;;-3.87;83.74;101711.48;84241;1337;22612;-73
2021/12/14 05:22:09;;;;;;;48.10;23.20;;;;;;;-3.86;83.61;101714.56;84203;1336;22720;-73
2021/12/14 05:24:22;;;;;;;47.60;23.70;;;;;;;-3.86;83.74;101713.39;84213;1338;22637;-69
2021/12/14 05:26:31;;;;;;;39.40;20.70;;;;;;;-3.86;83.56;101710.98;84182;1337;22640;-69
2021/12/14 05:28:38;;;;;;;48.10;22.00;;;;;;;-3.88;83.56;101703.09;83516;1329;1003588;-69
2021/12/14 05:30:46;;;;;;;44.50;22.10;;;;;;;-3.86;83.60;101701.27;84191;1329;22648;-71
2021/12/14 05:32:54;;;;;;;47.00;21.00;;;;;;;-3.88;83.36;101698.98;84198;1337;24953;-72
2021/12/14 05:35:01;;;;;;;39.20;21.20;;;;;;;-3.87;83.40;101702.27;84209;1337;26044;-72
2021/12/14 05:37:13;;;;;;;41.20;21.50;;;;;;;-3.84;83.71;101699.64;84194;1338;23997;-72
2021/12/14 05:39:44;;;;;;;44.50;21.40;;;;;;;-3.80;83.58;101696.73;83489;1335;1015956;-68
2021/12/14 05:44:22;;;;;;;41.10;22.10;;;;;;;-3.75;83.64;101694.73;83499;1334;1002957;-68
2021/12/14 05:46:28;;;;;;;41.70;21.60;;;;;;;-3.75;83.60;101695.45;84200;1338;22612;-68
2021/12/14 05:48:40;;;;;;;40.90;20.20;;;;;;;-3.72;83.59;101697.25;84212;1338;22639;-68
2021/12/14 05:50:53;;;;;;;41.10;21.10;;;;;;;-3.76;83.27;101692.33;84233;1338;25360;-69
2021/12/14 05:53:00;;;;;;;39.60;22.10;;;;;;;-3.79;83.15;101701.06;84175;1337;22597;-70
2021/12/14 05:55:11;;;;;;;40.60;19.60;;;;;;;-3.82;83.32;101706.38;84187;1339;22753;-69
2021/12/14 05:57:22;;;;;;;45.80;22.20;;;;;;;-3.82;83.21;101707.74;84223;1337;22769;-73
2021/12/14 05:59:33;;;;;;;37.90;20.20;;;;;;;-3.82;83.19;101708.11;84228;1337;23317;-70
2021/12/14 06:01:39;;;;;;;36.60;19.30;;;;;;;-3.81;83.17;101706.25;84197;1337;22833;-69
2021/12/14 06:03:50;;;;;;;38.00;19.70;;;;;;;-3.79;83.19;101704.44;84204;1335;22616;-69
2021/12/14 06:05:57;;;;;;;39.80;19.70;;;;;;;-3.77;83.26;101702.52;84191;1337;22614;-73
2021/12/14 06:08:04;;;;;;;37.80;19.70;;;;;;;-3.72;83.63;101697.11;84227;1338;22764;-73
2021/12/14 06:10:11;;;;;;;39.10;20.60;;;;;;;-3.69;83.36;101700.13;84206;1339;25312;-69
2021/12/14 06:12:22;;;;;;;40.60;20.80;;;;;;;-3.71;83.31;101704.13;84202;1341;22765;-68
2021/12/14 06:14:30;;;;;;;38.50;19.60;;;;;;;-3.72;83.35;101703.75;84210;1338;24229;-69
2021/12/14 06:16:37;;;;;;;41.40;22.50;;;;;;;-3.74;83.29;101704.86;84216;1334;22662;-68
2021/12/14 06:18:44;;;;;;;41.70;21.20;;;;;;;-3.73;83.55;101698.25;84220;1337;23932;-68
2021/12/14 06:20:50;;;;;;;40.20;21.20;;;;;;;-3.71;83.63;101690.12;84199;1337;24251;-68
2021/12/14 06:22:57;;;;;;;39.40;20.20;;;;;;;-3.72;83.56;101683.11;84222;1337;22895;-68
2021/12/14 06:25:10;;;;;;;40.60;21.40;;;;;;;-3.72;83.42;101682.10;84192;1338;22647;-68
2021/12/14 06:27:18;;;;;;;40.80;20.70;;;;;;;-3.71;83.37;101681.44;84230;1337;22627;-72
2021/12/14 06:29:29;;;;;;;38.40;21.30;;;;;;;-3.71;83.35;101679.56;84230;1334;22640;-73
2021/12/14 06:31:39;;;;;;;39.40;21.70;;;;;;;-3.71;83.29;101672.09;84205;1337;22739;-72
2021/12/14 06:33:49;;;;;;;41.00;23.80;;;;;;;-3.70;83.39;101672.28;83502;1337;1003435;-73
2021/12/14 06:35:58;;;;;;;42.60;22.20;;;;;;;-3.70;83.44;101670.77;84221;1338;22631;-73
2021/12/14 06:38:29;;;;;;;38.80;21.20;;;;;;;-3.69;83.37;101670.46;84207;1338;22687;-73
2021/12/14 06:40:37;;;;;;;45.30;22.30;;;;;;;-3.72;83.33;101665.23;84226;1337;22612;-72
2021/12/14 06:42:46;;;;;;;48.50;24.20;;;;;;;-3.73;83.28;101664.97;84230;1337;23843;-73
2021/12/14 06:44:52;;;;;;;45.90;23.70;;;;;;;-3.76;83.19;101664.00;84252;1330;22615;-74
2021/12/14 06:46:59;;;;;;;42.80;21.90;;;;;;;-3.80;83.19;101667.95;84175;1333;22840;-73
2021/12/14 06:49:07;;;;;;;47.60;24.60;;;;;;;-3.81;83.24;101672.49;84230;1337;22608;-68
2021/12/14 06:51:16;;;;;;;49.70;25.50;;;;;;;-3.79;83.15;101672.59;84222;1339;22676;-68
2021/12/14 06:53:22;;;;;;;42.70;21.00;;;;;;;-3.76;83.34;101672.20;84205;1337;22725;-69
2021/12/14 06:55:32;;;;;;;38.30;20.30;;;;;;;-3.71;83.17;101673.10;84232;1338;24401;-74
2021/12/14 06:57:42;;;;;;;43.10;22.30;;;;;;;-3.64;83.37;101672.52;84209;1334;22613;-73
2021/12/14 06:59:48;;;;;;;48.30;22.70;;;;;;;-3.59;83.36;101669.83;84196;1338;23881;-68
2021/12/14 07:01:56;;;;;;;45.80;22.10;;;;;;;-3.55;83.29;101666.40;84195;1337;25419;-69
2021/12/14 07:04:06;;;;;;;44.40;21.90;;;;;;;-3.52;83.44;101655.42;84228;1338;23983;-71
2021/12/14 07:06:24;;;;;;;44.60;23.20;;;;;;;-3.50;83.46;101649.54;84235;1338;22598;-73
2021/12/14 07:08:32;;;;;;;47.00;23.20;;;;;;;-3.47;83.32;101649.33;84215;1338;25313;-73
2021/12/14 07:10:42;;;;;;;45.70;24.90;;;;;;;-3.46;83.24;101649.04;83413;1338;1016040;-68
2021/12/14 07:12:49;;;;;;;48.90;22.60;;;;;;;-3.39;83.48;101652.02;84224;1336;22648;-68
2021/12/14 07:15:17;;;;;;;45.20;23.20;;;;;;;-3.32;83.49;101653.48;84237;1336;24267;-69
2021/12/14 07:17:30;;;;;;;43.00;21.40;;;;;;;-3.25;83.38;101654.60;83516;1337;1005581;-67
2021/12/14 07:19:43;;;;;;;43.20;22.10;;;;;;;-3.20;83.22;101652.91;84219;1339;25003;-67
2021/12/14 07:21:52;;;;;;;42.80;21.80;;;;;;;-3.14;83.10;101651.49;84217;1337;22608;-68
2021/12/14 07:23:59;;;;;;;45.60;25.20;;;;;;;-3.07;83.12;101652.06;84207;1337;24290;-68
2021/12/14 07:26:09;;;;;;;48.30;23.80;;;;;;;-3.01;83.16;101651.27;83468;1338;1003421;-70
2021/12/14 07:28:20;;;;;;;48.60;23.10;;;;;;;-2.95;83.22;101646.52;84229;1338;22641;-69
2021/12/14 07:30:30;;;;;;;51.50;26.40;;;;;;;-2.89;83.24;101641.30;84219;1329;24412;-73
2021/12/14 07:32:42;;;;;;;46.70;23.80;;;;;;;-2.86;82.72;101640.05;83510;1337;1003700;-73
2021/12/14 07:34:52;;;;;;;50.80;27.60;;;;;;;-2.83;82.91;101640.98;84245;1329;22701;-69
2021/12/14 07:36:59;;;;;;;51.50;27.20;;;;;;;-2.77;82.87;101644.11;84221;1335;25864;-69
2021/12/14 07:39:06;;;;;;;48.40;23.90;;;;;;;-2.71;82.88;101644.70;84205;1337;23921;-73
2021/12/14 07:41:25;;;;;;;50.40;23.70;;;;;;;-2.66;82.66;101638.23;84219;1331;22619;-73
2021/12/14 07:43:38;;;;;;;46.30;22.70;;;;;;;-2.61;82.51;101637.73;84117;1340;22683;-72
2021/12/14 07:45:50;;;;;;;44.60;23.60;;;;;;;-2.56;82.61;101636.18;84264;1338;22644;-68
2021/12/14 07:47:57;;;;;;;48.70;25.00;;;;;;;-2.51;82.52;101643.68;84213;1337;22891;-69
2021/12/14 07:50:04;;;;;;;53.90;27.10;;;;;;;-2.46;82.71;101647.83;84238;1337;22737;-74
2021/12/14 07:52:15;;;;;;;46.20;24.90;;;;;;;-2.44;82.54;101648.23;84208;1338;25505;-69
2021/12/14 07:54:25;;;;;;;48.20;24.20;;;;;;;-2.42;81.98;101645.73;84246;1341;24134;-70
2021/12/14 07:56:35;;;;;;;52.20;24.90;;;;;;;-2.45;82.14;101646.49;84218;1338;22596;-69
2021/12/14 07:58:47;;;;;;;51.50;24.30;;;;;;;-2.46;82.25;101651.91;83533;1334;1003145;-74
2021/12/14 08:00:58;;;;;;;52.50;25.90;;;;;;;-2.47;82.22;101655.27;84213;1338;22746;-74
2021/12/14 08:03:04;;;;;;;57.60;26.60;;;;;;;-2.49;82.30;101655.21;84168;1340;22588;-76
2021/12/14 08:05:17;;;;;;;54.50;25.80;;;;;;;-2.51;82.18;101653.95;83512;1337;1003846;-72
2021/12/14 08:07:31;;;;;;;59.10;27.20;;;;;;;-2.51;82.25;101655.86;84209;1338;23944;-74
2021/12/14 08:09:48;;;;;;;55.40;24.40;;;;;;;-2.46;82.42;101657.20;84236;1338;22603;-68
2021/12/14 08:11:55;;;;;;;46.70;22.90;;;;;;;-2.42;82.57;101656.16;84118;1338;22612;-68
2021/12/14 08:14:02;;;;;;;47.20;23.50;;;;;;;-2.38;82.54;101656.64;84210;1337;22631;-68
2021/12/14 08:16:09;;;;;;;55.00;26.50;;;;;;;-2.34;82.52;101658.30;84230;1338;23938;-67
2021/12/14 08:18:21;;;;;;;58.30;25.90;;;;;;;-2.29;82.54;101664.14;84239;1337;25636;-72
2021/12/14 08:20:27;;;;;;;54.90;28.40;;;;;;;-2.25;82.57;101664.61;84245;1338;22604;-69
2021/12/14 08:22:38;;;;;;;54.70;24.60;;;;;;;-2.22;82.53;101663.68;84207;1334;22612;-70
2021/12/14 08:24:50;;;;;;;53.80;25.70;;;;;;;-2.21;82.40;101665.77;84244;1337;22621;-69
2021/12/14 08:27:01;;;;;;;53.30;24.90;;;;;;;-2.20;82.46;101666.83;84195;1337;22804;-69
2021/12/14 08:29:08;;;;;;;59.00;26.50;;;;;;;-2.19;82.48;101664.45;84215;1337;22844;-69
2021/12/14 08:31:21;;;;;;;56.90;28.20;;;;;;;-2.19;82.29;101667.21;84208;1329;22708;-69
2021/12/14 08:33:31;;;;;;;53.40;24.90;;;;;;;-2.16;82.30;101672.96;84205;1338;25506;-68
2021/12/14 08:35:44;;;;;;;61.70;25.30;;;;;;;-2.15;82.14;101668.73;84209;1338;22788;-69
2021/12/14 08:37:56;;;;;;;50.50;24.30;;;;;;;-2.14;82.08;101666.70;84208;1337;22670;-68
2021/12/14 08:40:08;;;;;;;47.30;24.20;;;;;;;-2.13;82.46;101667.59;84220;1338;24164;-74
2021/12/14 08:42:22;;;;;;;50.00;25.50;;;;;;;-2.10;82.20;101667.20;84237;1336;22724;-72
2021/12/14 08:44:36;;;;;;;63.10;26.70;;;;;;;-2.10;82.40;101664.97;84155;1338;23164;-70
2021/12/14 08:46:43;;;;;;;54.60;25.20;;;;;;;-2.09;82.42;101667.91;84188;1338;22616;-69
2021/12/14 08:48:51;;;;;;;74.30;28.60;;;;;;;-2.08;82.51;101669.13;84197;1337;25293;-68
2021/12/14 08:51:00;;;;;;;59.30;29.20;;;;;;;-2.06;82.59;101666.98;83510;1338;1003903;-76
2021/12/14 08:53:08;;;;;;;62.30;27.70;;;;;;;-2.03;82.70;101662.95;84186;1337;23919;-73
2021/12/14 08:55:19;;;;;;;58.00;25.60;;;;;;;-2.02;82.53;101657.56;84234;1338;22619;-67
2021/12/14 08:57:41;;;;;;;57.80;28.30;;;;;;;-1.97;82.61;101655.48;84197;1337;25467;-68
2021/12/14 09:00:19;;;;;;;61.50;24.10;;;;;;;-1.89;82.70;101654.38;84040;1336;24354;-67
2021/12/14 09:02:32;;;;;;;56.10;27.10;;;;;;;-1.84;82.54;101651.82;84196;1337;22598;-67
2021/12/14 09:04:45;;;;;;;59.50;27.40;;;;;;;-1.77;82.55;101647.23;84203;1339;25986;-67
2021/12/14 09:06:58;;;;;;;59.90;29.70;;;;;;;-1.74;82.75;101644.26;84191;1337;22613;-70
2021/12/14 09:09:08;;;;;;;59.10;28.40;;;;;;;-1.70;82.66;101641.31;83377;1338;1003270;-73
2021/12/14 09:11:19;;;;;;;67.70;29.10;;;;;;;-1.67;82.48;101641.58;84202;1337;22637;-73
2021/12/14 09:13:29;;;;;;;63.90;27.90;;;;;;;-1.67;82.28;101640.05;84198;1338;22621;-74
2021/12/14 09:15:41;;;;;;;62.00;28.00;;;;;;;-1.67;82.64;101634.94;84204;1337;22608;-74
2021/12/14 09:17:48;;;;;;;61.40;26.90;;;;;;;-1.62;82.59;101631.33;83511;1338;1015903;-74
2021/12/14 09:19:59;;;;;;;66.30;28.80;;;;;;;-1.56;82.56;101626.55;84199;1338;22646;-68
2021/12/14 09:22:09;;;;;;;62.00;27.50;;;;;;;-1.50;82.56;101624.67;84223;1334;23087;-68
2021/12/14 09:24:21;;;;;;;69.20;27.80;;;;;;;-1.43;82.42;101619.90;84202;1338;25324;-69
2021/12/14 09:26:31;;;;;;;68.00;27.50;;;;;;;-1.40;82.34;101618.63;84222;1338;22734;-69
2021/12/14 09:28:37;;;;;;;62.30;28.20;;;;;;;-1.35;82.36;101614.17;84240;1339;22620;-68
2021/12/14 09:30:50;;;;;;;67.30;28.80;;;;;;;-1.28;82.37;101611.13;84063;1338;24577;-76
2021/12/14 09:33:00;;;;;;;63.60;28.10;;;;;;;-1.28;81.85;101611.30;84196;1337;23942;-73
2021/12/14 09:35:08;;;;;;;62.30;26.70;;;;;;;-1.27;82.03;101614.05;84185;1338;22652;-74
2021/12/14 09:37:16;;;;;;;59.50;28.90;;;;;;;-1.28;82.13;101613.69;84225;1333;22627;-75
2021/12/14 09:39:25;;;;;;;62.20;29.30;;;;;;;-1.26;82.01;101612.23;84196;1338;22599;-75
2021/12/14 09:41:33;;;;;;;65.10;27.70;;;;;;;-1.20;82.18;101610.84;84089;1338;25498;-68
2021/12/14 09:43:40;;;;;;;65.20;27.50;;;;;;;-1.17;82.00;101611.48;84221;1338;25322;-68
2021/12/14 09:45:52;;;;;;;56.90;25.10;;;;;;;-1.15;82.01;101608.96;84089;1340;22701;-69
2021/12/14 09:47:59;;;;;;;61.60;28.90;;;;;;;-1.11;81.73;101606.00;84215;1341;24316;-68
2021/12/14 09:50:09;;;;;;;55.50;26.70;;;;;;;-1.11;81.75;101604.80;84229;1337;22598;-73
2021/12/14 09:52:15;;;;;;;;;;;;;;;-1.06;82.02;101606.33;84224;1337;22740;-73
2021/12/14 09:54:23;;;;;;;60.70;30.00;;;;;;;-1.00;82.20;101604.27;84191;1337;25287;-69
2021/12/14 09:56:37;;;;;;;58.20;27.50;;;;;;;-0.94;82.14;101603.41;84212;1337;22616;-68
2021/12/14 09:58:50;;;;;;;63.00;29.40;;;;;;;-0.92;81.93;101597.96;84191;1338;23953;-69
2021/12/14 10:00:58;;;;;;;63.50;28.90;;;;;;;-0.91;81.94;101599.20;84195;1337;22621;-75
2021/12/14 10:03:09;;;;;;;59.90;28.40;;;;;;;-0.87;82.02;101595.72;84215;1336;22607;-74
2021/12/14 10:05:21;;;;;;;61.70;27.90;;;;;;;-0.82;82.07;101592.77;84191;1337;23932;-74
2021/12/14 10:07:28;;;;;;;60.20;26.00;;;;;;;-0.78;81.89;101593.92;84224;1337;22654;-69
2021/12/14 10:09:41;;;;;;;53.40;24.50;;;;;;;-0.74;81.84;101589.92;84219;1337;22637;-69
2021/12/14 10:12:07;;;;;;;51.90;24.50;;;;;;;-0.67;81.77;101588.56;82795;1334;1003876;-67
2021/12/14 10:14:15;;;;;;;56.00;27.50;;;;;;;-0.63;81.73;101589.54;84191;1336;22747;-69